sensor_id;sensor_type;location;lat;lon;timestamp;P1;durP1;ratioP1;P2;durP2;ratioP2
79015;SDS011;72726;44.842;37.556;2024-01-11T00:00:34;18.95;;;7.85;;
79015;SDS011;72726;44.842;37.556;2024-01-11T00:01:36;18.77;;;8.63;;
79015;SDS011;72726;44.842;37.556;2024-01-11T00:02:37;20.27;;;8.70;;
79015;SDS011;72726;44.842;37.556;2024-01-11T00:03:38;18.20;;;7.95;;
79015;SDS011;72726;44.842;37.556;2024-01-11T00:04:39;19.98;;;8.02;;
79015;SDS011;72726;44.842;37.556;2024-01-11T00:05:41;18.58;;;7.72;;
79015;SDS011;72726;44.842;37.556;2024-01-11T00:06:42;20.27;;;8.68;;
79015;SDS011;72726;44.842;37.556;2024-01-11T00:07:44;19.30;;;8.43;;
79015;SDS011;72726;44.842;37.556;2024-01-11T00:08:45;18.05;;;8.50;;
79015;SDS011;72726;44.842;37.556;2024-01-11T00:09:46;22.27;;;9.35;;
79015;SDS011;72726;44.842;37.556;2024-01-11T00:10:47;22.70;;;8.98;;
79015;SDS011;72726;44.842;37.556;2024-01-11T00:11:48;23.65;;;9.10;;
79015;SDS011;72726;44.842;37.556;2024-01-11T00:12:50;24.38;;;9.50;;
79015;SDS011;72726;44.842;37.556;2024-01-11T00:13:51;23.20;;;8.55;;
79015;SDS011;72726;44.842;37.556;2024-01-11T00:14:52;21.98;;;8.73;;
79015;SDS011;72726;44.842;37.556;2024-01-11T00:15:53;25.27;;;9.60;;
79015;SDS011;72726;44.842;37.556;2024-01-11T00:16:54;24.00;;;9.52;;
79015;SDS011;72726;44.842;37.556;2024-01-11T00:17:56;29.90;;;10.45;;
79015;SDS011;72726;44.842;37.556;2024-01-11T00:18:57;25.58;;;9.50;;
79015;SDS011;72726;44.842;37.556;2024-01-11T00:19:58;24.20;;;10.48;;
79015;SDS011;72726;44.842;37.556;2024-01-11T00:20:59;24.83;;;9.70;;
79015;SDS011;72726;44.842;37.556;2024-01-11T00:22:01;29.65;;;11.10;;
79015;SDS011;72726;44.842;37.556;2024-01-11T00:23:02;21.75;;;8.90;;
79015;SDS011;72726;44.842;37.556;2024-01-11T00:24:04;27.52;;;10.40;;
79015;SDS011;72726;44.842;37.556;2024-01-11T00:25:05;26.73;;;9.65;;
79015;SDS011;72726;44.842;37.556;2024-01-11T00:26:07;31.42;;;11.55;;
79015;SDS011;72726;44.842;37.556;2024-01-11T00:27:08;28.50;;;10.10;;
79015;SDS011;72726;44.842;37.556;2024-01-11T00:28:09;29.25;;;10.65;;
79015;SDS011;72726;44.842;37.556;2024-01-11T00:29:10;27.88;;;10.57;;
79015;SDS011;72726;44.842;37.556;2024-01-11T00:30:12;30.23;;;10.70;;
79015;SDS011;72726;44.842;37.556;2024-01-11T00:31:13;26.42;;;9.82;;
79015;SDS011;72726;44.842;37.556;2024-01-11T00:32:14;27.40;;;10.73;;
79015;SDS011;72726;44.842;37.556;2024-01-11T00:33:15;31.98;;;10.57;;
79015;SDS011;72726;44.842;37.556;2024-01-11T00:34:17;24.70;;;10.45;;
79015;SDS011;72726;44.842;37.556;2024-01-11T00:35:18;26.23;;;10.10;;
79015;SDS011;72726;44.842;37.556;2024-01-11T00:36:19;36.17;;;10.68;;
79015;SDS011;72726;44.842;37.556;2024-01-11T00:37:21;30.92;;;9.65;;
79015;SDS011;72726;44.842;37.556;2024-01-11T00:38:22;31.55;;;10.30;;
79015;SDS011;72726;44.842;37.556;2024-01-11T00:39:23;34.67;;;10.68;;
79015;SDS011;72726;44.842;37.556;2024-01-11T00:40:25;27.23;;;9.20;;
79015;SDS011;72726;44.842;37.556;2024-01-11T00:41:26;26.83;;;9.25;;
79015;SDS011;72726;44.842;37.556;2024-01-11T00:42:27;29.83;;;10.75;;
79015;SDS011;72726;44.842;37.556;2024-01-11T00:43:28;33.30;;;9.82;;
79015;SDS011;72726;44.842;37.556;2024-01-11T00:44:29;32.45;;;11.05;;
79015;SDS011;72726;44.842;37.556;2024-01-11T00:45:30;24.88;;;9.73;;
79015;SDS011;72726;44.842;37.556;2024-01-11T00:46:32;27.73;;;9.85;;
79015;SDS011;72726;44.842;37.556;2024-01-11T00:47:33;29.67;;;10.25;;
79015;SDS011;72726;44.842;37.556;2024-01-11T00:48:34;39.00;;;11.60;;
79015;SDS011;72726;44.842;37.556;2024-01-11T00:49:35;29.38;;;10.20;;
79015;SDS011;72726;44.842;37.556;2024-01-11T00:50:36;27.25;;;10.05;;
79015;SDS011;72726;44.842;37.556;2024-01-11T00:51:37;33.58;;;10.00;;
79015;SDS011;72726;44.842;37.556;2024-01-11T00:52:38;38.17;;;10.63;;
79015;SDS011;72726;44.842;37.556;2024-01-11T00:53:40;27.33;;;8.90;;
79015;SDS011;72726;44.842;37.556;2024-01-11T00:54:41;31.25;;;10.65;;
79015;SDS011;72726;44.842;37.556;2024-01-11T00:55:42;29.05;;;9.45;;
79015;SDS011;72726;44.842;37.556;2024-01-11T00:56:43;26.90;;;9.38;;
79015;SDS011;72726;44.842;37.556;2024-01-11T00:57:45;29.67;;;10.20;;
79015;SDS011;72726;44.842;37.556;2024-01-11T00:58:46;29.63;;;9.18;;
79015;SDS011;72726;44.842;37.556;2024-01-11T00:59:47;23.90;;;8.63;;
79015;SDS011;72726;44.842;37.556;2024-01-11T01:00:49;20.80;;;7.60;;
79015;SDS011;72726;44.842;37.556;2024-01-11T01:01:50;25.63;;;7.97;;
79015;SDS011;72726;44.842;37.556;2024-01-11T01:02:51;23.58;;;7.70;;
79015;SDS011;72726;44.842;37.556;2024-01-11T01:03:53;21.02;;;8.40;;
79015;SDS011;72726;44.842;37.556;2024-01-11T01:04:54;25.98;;;8.50;;
79015;SDS011;72726;44.842;37.556;2024-01-11T01:05:55;20.33;;;8.45;;
79015;SDS011;72726;44.842;37.556;2024-01-11T01:06:56;26.83;;;8.73;;
79015;SDS011;72726;44.842;37.556;2024-01-11T01:07:58;26.45;;;8.18;;
79015;SDS011;72726;44.842;37.556;2024-01-11T01:08:59;23.65;;;8.52;;
79015;SDS011;72726;44.842;37.556;2024-01-11T01:10:00;26.65;;;8.38;;
79015;SDS011;72726;44.842;37.556;2024-01-11T01:11:02;22.75;;;7.63;;
79015;SDS011;72726;44.842;37.556;2024-01-11T01:12:04;22.60;;;7.97;;
79015;SDS011;72726;44.842;37.556;2024-01-11T01:13:05;22.67;;;7.93;;
79015;SDS011;72726;44.842;37.556;2024-01-11T01:14:06;20.63;;;7.57;;
79015;SDS011;72726;44.842;37.556;2024-01-11T01:15:08;23.65;;;8.25;;
79015;SDS011;72726;44.842;37.556;2024-01-11T01:16:09;23.90;;;8.43;;
79015;SDS011;72726;44.842;37.556;2024-01-11T01:17:10;27.95;;;7.95;;
79015;SDS011;72726;44.842;37.556;2024-01-11T01:18:11;20.98;;;7.30;;
79015;SDS011;72726;44.842;37.556;2024-01-11T01:19:12;21.58;;;7.53;;
79015;SDS011;72726;44.842;37.556;2024-01-11T01:20:14;22.15;;;7.60;;
79015;SDS011;72726;44.842;37.556;2024-01-11T01:21:15;17.13;;;7.22;;
79015;SDS011;72726;44.842;37.556;2024-01-11T01:22:16;21.00;;;7.15;;
79015;SDS011;72726;44.842;37.556;2024-01-11T01:23:17;25.20;;;8.07;;
79015;SDS011;72726;44.842;37.556;2024-01-11T01:24:19;22.48;;;7.80;;
79015;SDS011;72726;44.842;37.556;2024-01-11T01:25:20;23.85;;;7.82;;
79015;SDS011;72726;44.842;37.556;2024-01-11T01:26:21;21.75;;;7.65;;
79015;SDS011;72726;44.842;37.556;2024-01-11T01:27:22;22.80;;;9.15;;
79015;SDS011;72726;44.842;37.556;2024-01-11T01:28:23;21.67;;;7.13;;
79015;SDS011;72726;44.842;37.556;2024-01-11T01:29:24;21.48;;;7.53;;
79015;SDS011;72726;44.842;37.556;2024-01-11T01:30:26;19.38;;;7.53;;
79015;SDS011;72726;44.842;37.556;2024-01-11T01:31:28;23.33;;;7.93;;
79015;SDS011;72726;44.842;37.556;2024-01-11T01:32:29;18.85;;;7.70;;
79015;SDS011;72726;44.842;37.556;2024-01-11T01:33:31;22.52;;;8.00;;
79015;SDS011;72726;44.842;37.556;2024-01-11T01:34:35;20.17;;;7.75;;
79015;SDS011;72726;44.842;37.556;2024-01-11T01:35:36;22.38;;;7.60;;
79015;SDS011;72726;44.842;37.556;2024-01-11T01:36:37;16.23;;;6.40;;
79015;SDS011;72726;44.842;37.556;2024-01-11T01:37:39;26.98;;;7.65;;
79015;SDS011;72726;44.842;37.556;2024-01-11T01:38:40;22.00;;;7.60;;
79015;SDS011;72726;44.842;37.556;2024-01-11T01:39:41;20.88;;;7.50;;
79015;SDS011;72726;44.842;37.556;2024-01-11T01:40:43;20.35;;;7.50;;
79015;SDS011;72726;44.842;37.556;2024-01-11T01:41:44;17.17;;;7.43;;
79015;SDS011;72726;44.842;37.556;2024-01-11T01:42:46;16.73;;;6.95;;
79015;SDS011;72726;44.842;37.556;2024-01-11T01:43:47;17.25;;;7.32;;
79015;SDS011;72726;44.842;37.556;2024-01-11T01:44:49;19.70;;;7.40;;
79015;SDS011;72726;44.842;37.556;2024-01-11T01:45:51;23.52;;;8.48;;
79015;SDS011;72726;44.842;37.556;2024-01-11T01:46:52;19.55;;;7.63;;
79015;SDS011;72726;44.842;37.556;2024-01-11T01:47:53;18.50;;;7.07;;
79015;SDS011;72726;44.842;37.556;2024-01-11T01:48:56;18.30;;;7.03;;
79015;SDS011;72726;44.842;37.556;2024-01-11T01:49:58;20.98;;;7.30;;
79015;SDS011;72726;44.842;37.556;2024-01-11T01:51:00;19.70;;;7.50;;
79015;SDS011;72726;44.842;37.556;2024-01-11T01:52:01;20.42;;;8.48;;
79015;SDS011;72726;44.842;37.556;2024-01-11T01:53:04;19.67;;;7.20;;
79015;SDS011;72726;44.842;37.556;2024-01-11T01:54:05;19.17;;;7.53;;
79015;SDS011;72726;44.842;37.556;2024-01-11T01:55:07;20.02;;;7.47;;
79015;SDS011;72726;44.842;37.556;2024-01-11T01:56:11;18.45;;;7.68;;
79015;SDS011;72726;44.842;37.556;2024-01-11T01:57:13;19.80;;;7.65;;
79015;SDS011;72726;44.842;37.556;2024-01-11T01:58:17;19.45;;;8.10;;
79015;SDS011;72726;44.842;37.556;2024-01-11T01:59:19;18.98;;;6.72;;
79015;SDS011;72726;44.842;37.556;2024-01-11T02:00:22;18.10;;;6.55;;
79015;SDS011;72726;44.842;37.556;2024-01-11T02:01:23;24.25;;;7.43;;
79015;SDS011;72726;44.842;37.556;2024-01-11T02:02:27;20.90;;;6.55;;
79015;SDS011;72726;44.842;37.556;2024-01-11T02:03:29;18.48;;;5.97;;
79015;SDS011;72726;44.842;37.556;2024-01-11T02:04:31;17.02;;;7.03;;
79015;SDS011;72726;44.842;37.556;2024-01-11T02:05:33;20.10;;;6.43;;
79015;SDS011;72726;44.842;37.556;2024-01-11T02:06:35;19.40;;;7.07;;
79015;SDS011;72726;44.842;37.556;2024-01-11T02:07:38;20.45;;;6.20;;
79015;SDS011;72726;44.842;37.556;2024-01-11T02:08:43;22.27;;;7.15;;
79015;SDS011;72726;44.842;37.556;2024-01-11T02:09:46;17.75;;;6.85;;
79015;SDS011;72726;44.842;37.556;2024-01-11T02:10:48;18.77;;;7.95;;
79015;SDS011;72726;44.842;37.556;2024-01-11T02:11:52;18.83;;;7.38;;
79015;SDS011;72726;44.842;37.556;2024-01-11T02:12:54;19.20;;;7.40;;
79015;SDS011;72726;44.842;37.556;2024-01-11T02:13:56;18.17;;;6.85;;
79015;SDS011;72726;44.842;37.556;2024-01-11T02:14:58;19.33;;;6.35;;
79015;SDS011;72726;44.842;37.556;2024-01-11T02:15:59;21.23;;;6.03;;
79015;SDS011;72726;44.842;37.556;2024-01-11T02:17:06;18.52;;;6.30;;
79015;SDS011;72726;44.842;37.556;2024-01-11T02:18:08;21.08;;;6.15;;
79015;SDS011;72726;44.842;37.556;2024-01-11T02:19:10;16.65;;;5.72;;
79015;SDS011;72726;44.842;37.556;2024-01-11T02:20:14;15.40;;;6.28;;
79015;SDS011;72726;44.842;37.556;2024-01-11T02:21:15;20.02;;;6.45;;
79015;SDS011;72726;44.842;37.556;2024-01-11T02:22:21;19.38;;;6.43;;
79015;SDS011;72726;44.842;37.556;2024-01-11T02:23:25;16.88;;;5.72;;
79015;SDS011;72726;44.842;37.556;2024-01-11T02:24:28;18.25;;;6.60;;
79015;SDS011;72726;44.842;37.556;2024-01-11T02:25:30;20.55;;;6.90;;
79015;SDS011;72726;44.842;37.556;2024-01-11T02:26:31;19.63;;;6.38;;
79015;SDS011;72726;44.842;37.556;2024-01-11T02:27:46;19.40;;;6.78;;
79015;SDS011;72726;44.842;37.556;2024-01-11T02:28:55;17.95;;;6.60;;
79015;SDS011;72726;44.842;37.556;2024-01-11T02:29:57;19.80;;;7.20;;
79015;SDS011;72726;44.842;37.556;2024-01-11T02:30:58;19.27;;;7.03;;
79015;SDS011;72726;44.842;37.556;2024-01-11T02:32:00;19.55;;;6.93;;
79015;SDS011;72726;44.842;37.556;2024-01-11T02:33:03;19.73;;;7.07;;
79015;SDS011;72726;44.842;37.556;2024-01-11T02:34:05;17.85;;;7.70;;
79015;SDS011;72726;44.842;37.556;2024-01-11T02:35:07;19.15;;;7.15;;
79015;SDS011;72726;44.842;37.556;2024-01-11T02:36:08;18.73;;;7.40;;
79015;SDS011;72726;44.842;37.556;2024-01-11T02:37:09;16.27;;;6.82;;
79015;SDS011;72726;44.842;37.556;2024-01-11T02:38:10;23.38;;;9.02;;
79015;SDS011;72726;44.842;37.556;2024-01-11T02:39:12;19.90;;;7.68;;
79015;SDS011;72726;44.842;37.556;2024-01-11T02:40:17;21.10;;;8.05;;
79015;SDS011;72726;44.842;37.556;2024-01-11T02:41:19;21.08;;;7.97;;
79015;SDS011;72726;44.842;37.556;2024-01-11T02:42:21;25.83;;;8.38;;
79015;SDS011;72726;44.842;37.556;2024-01-11T02:43:22;22.88;;;9.20;;
79015;SDS011;72726;44.842;37.556;2024-01-11T02:44:23;25.75;;;8.23;;
79015;SDS011;72726;44.842;37.556;2024-01-11T02:45:25;29.60;;;8.55;;
79015;SDS011;72726;44.842;37.556;2024-01-11T02:46:26;23.10;;;8.23;;
79015;SDS011;72726;44.842;37.556;2024-01-11T02:47:27;23.55;;;8.18;;
79015;SDS011;72726;44.842;37.556;2024-01-11T02:48:29;22.63;;;7.88;;
79015;SDS011;72726;44.842;37.556;2024-01-11T02:49:30;21.55;;;7.50;;
79015;SDS011;72726;44.842;37.556;2024-01-11T02:50:31;23.45;;;8.38;;
79015;SDS011;72726;44.842;37.556;2024-01-11T02:51:33;22.63;;;8.60;;
79015;SDS011;72726;44.842;37.556;2024-01-11T02:52:34;22.80;;;8.02;;
79015;SDS011;72726;44.842;37.556;2024-01-11T02:53:41;20.23;;;7.93;;
79015;SDS011;72726;44.842;37.556;2024-01-11T02:54:42;19.52;;;7.47;;
79015;SDS011;72726;44.842;37.556;2024-01-11T02:55:43;20.45;;;7.57;;
79015;SDS011;72726;44.842;37.556;2024-01-11T02:56:44;22.00;;;8.63;;
79015;SDS011;72726;44.842;37.556;2024-01-11T02:57:45;18.60;;;7.38;;
79015;SDS011;72726;44.842;37.556;2024-01-11T02:58:46;21.88;;;8.32;;
79015;SDS011;72726;44.842;37.556;2024-01-11T02:59:49;22.17;;;7.60;;
79015;SDS011;72726;44.842;37.556;2024-01-11T03:00:52;26.25;;;7.40;;
79015;SDS011;72726;44.842;37.556;2024-01-11T03:01:53;20.80;;;7.38;;
79015;SDS011;72726;44.842;37.556;2024-01-11T03:02:54;23.08;;;8.43;;
79015;SDS011;72726;44.842;37.556;2024-01-11T03:03:55;24.25;;;8.07;;
79015;SDS011;72726;44.842;37.556;2024-01-11T03:04:57;20.13;;;7.90;;
79015;SDS011;72726;44.842;37.556;2024-01-11T03:05:58;19.85;;;8.88;;
79015;SDS011;72726;44.842;37.556;2024-01-11T03:06:59;21.42;;;8.52;;
79015;SDS011;72726;44.842;37.556;2024-01-11T03:08:00;21.35;;;8.05;;
79015;SDS011;72726;44.842;37.556;2024-01-11T03:09:01;21.23;;;7.93;;
79015;SDS011;72726;44.842;37.556;2024-01-11T03:10:02;19.58;;;8.23;;
79015;SDS011;72726;44.842;37.556;2024-01-11T03:11:04;21.92;;;7.93;;
79015;SDS011;72726;44.842;37.556;2024-01-11T03:12:05;19.90;;;7.57;;
79015;SDS011;72726;44.842;37.556;2024-01-11T03:13:07;24.13;;;8.55;;
79015;SDS011;72726;44.842;37.556;2024-01-11T03:14:08;22.70;;;7.85;;
79015;SDS011;72726;44.842;37.556;2024-01-11T03:15:09;23.80;;;8.05;;
79015;SDS011;72726;44.842;37.556;2024-01-11T03:16:10;23.10;;;8.77;;
79015;SDS011;72726;44.842;37.556;2024-01-11T03:17:17;21.65;;;8.07;;
79015;SDS011;72726;44.842;37.556;2024-01-11T03:18:23;25.52;;;8.55;;
79015;SDS011;72726;44.842;37.556;2024-01-11T03:19:24;23.55;;;9.02;;
79015;SDS011;72726;44.842;37.556;2024-01-11T03:20:25;22.45;;;8.65;;
79015;SDS011;72726;44.842;37.556;2024-01-11T03:21:26;23.77;;;8.45;;
79015;SDS011;72726;44.842;37.556;2024-01-11T03:22:27;21.88;;;9.23;;
79015;SDS011;72726;44.842;37.556;2024-01-11T03:23:28;25.40;;;8.98;;
79015;SDS011;72726;44.842;37.556;2024-01-11T03:24:29;23.17;;;8.10;;
79015;SDS011;72726;44.842;37.556;2024-01-11T03:25:30;25.38;;;8.23;;
79015;SDS011;72726;44.842;37.556;2024-01-11T03:26:31;23.52;;;8.00;;
79015;SDS011;72726;44.842;37.556;2024-01-11T03:27:33;24.02;;;8.65;;
79015;SDS011;72726;44.842;37.556;2024-01-11T03:28:34;24.65;;;8.93;;
79015;SDS011;72726;44.842;37.556;2024-01-11T03:29:40;23.08;;;8.73;;
79015;SDS011;72726;44.842;37.556;2024-01-11T03:30:41;24.48;;;8.63;;
79015;SDS011;72726;44.842;37.556;2024-01-11T03:31:42;25.52;;;9.45;;
79015;SDS011;72726;44.842;37.556;2024-01-11T03:32:45;25.05;;;9.82;;
79015;SDS011;72726;44.842;37.556;2024-01-11T03:33:47;26.67;;;10.10;;
79015;SDS011;72726;44.842;37.556;2024-01-11T03:34:48;27.95;;;10.63;;
79015;SDS011;72726;44.842;37.556;2024-01-11T03:35:49;23.30;;;9.35;;
79015;SDS011;72726;44.842;37.556;2024-01-11T03:36:50;25.85;;;10.20;;
79015;SDS011;72726;44.842;37.556;2024-01-11T03:37:52;25.55;;;9.90;;
79015;SDS011;72726;44.842;37.556;2024-01-11T03:38:53;28.25;;;10.35;;
79015;SDS011;72726;44.842;37.556;2024-01-11T03:39:54;28.15;;;10.95;;
79015;SDS011;72726;44.842;37.556;2024-01-11T03:40:56;28.73;;;10.70;;
79015;SDS011;72726;44.842;37.556;2024-01-11T03:41:57;30.90;;;10.65;;
79015;SDS011;72726;44.842;37.556;2024-01-11T03:42:58;30.13;;;11.02;;
79015;SDS011;72726;44.842;37.556;2024-01-11T03:44:00;28.80;;;11.13;;
79015;SDS011;72726;44.842;37.556;2024-01-11T03:45:02;31.02;;;11.00;;
79015;SDS011;72726;44.842;37.556;2024-01-11T03:46:04;30.60;;;11.73;;
79015;SDS011;72726;44.842;37.556;2024-01-11T03:47:06;28.08;;;10.77;;
79015;SDS011;72726;44.842;37.556;2024-01-11T03:48:07;30.20;;;12.13;;
79015;SDS011;72726;44.842;37.556;2024-01-11T03:49:09;26.15;;;11.43;;
79015;SDS011;72726;44.842;37.556;2024-01-11T03:50:10;30.02;;;11.05;;
79015;SDS011;72726;44.842;37.556;2024-01-11T03:51:12;27.52;;;11.55;;
79015;SDS011;72726;44.842;37.556;2024-01-11T03:52:13;33.42;;;12.38;;
79015;SDS011;72726;44.842;37.556;2024-01-11T03:53:15;30.67;;;11.77;;
79015;SDS011;72726;44.842;37.556;2024-01-11T03:54:16;32.50;;;11.95;;
79015;SDS011;72726;44.842;37.556;2024-01-11T03:55:18;30.80;;;11.88;;
79015;SDS011;72726;44.842;37.556;2024-01-11T03:56:19;29.08;;;11.40;;
79015;SDS011;72726;44.842;37.556;2024-01-11T03:57:20;32.47;;;11.85;;
79015;SDS011;72726;44.842;37.556;2024-01-11T03:58:22;28.15;;;11.27;;
79015;SDS011;72726;44.842;37.556;2024-01-11T03:59:23;26.88;;;11.55;;
79015;SDS011;72726;44.842;37.556;2024-01-11T04:00:25;29.83;;;11.82;;
79015;SDS011;72726;44.842;37.556;2024-01-11T04:01:29;30.40;;;11.52;;
79015;SDS011;72726;44.842;37.556;2024-01-11T04:02:31;31.20;;;11.90;;
79015;SDS011;72726;44.842;37.556;2024-01-11T04:03:32;31.65;;;12.35;;
79015;SDS011;72726;44.842;37.556;2024-01-11T04:04:33;29.23;;;12.32;;
79015;SDS011;72726;44.842;37.556;2024-01-11T04:05:35;33.22;;;12.38;;
79015;SDS011;72726;44.842;37.556;2024-01-11T04:06:36;31.85;;;12.38;;
79015;SDS011;72726;44.842;37.556;2024-01-11T04:07:37;29.92;;;11.88;;
79015;SDS011;72726;44.842;37.556;2024-01-11T04:08:39;30.98;;;11.13;;
79015;SDS011;72726;44.842;37.556;2024-01-11T04:09:40;31.40;;;12.93;;
79015;SDS011;72726;44.842;37.556;2024-01-11T04:10:41;29.58;;;13.20;;
79015;SDS011;72726;44.842;37.556;2024-01-11T04:11:43;34.90;;;12.60;;
79015;SDS011;72726;44.842;37.556;2024-01-11T04:12:44;34.40;;;13.95;;
79015;SDS011;72726;44.842;37.556;2024-01-11T04:13:45;37.25;;;14.02;;
79015;SDS011;72726;44.842;37.556;2024-01-11T04:14:47;36.05;;;13.45;;
79015;SDS011;72726;44.842;37.556;2024-01-11T04:15:48;35.78;;;12.93;;
79015;SDS011;72726;44.842;37.556;2024-01-11T04:16:49;34.00;;;13.88;;
79015;SDS011;72726;44.842;37.556;2024-01-11T04:17:51;33.83;;;14.75;;
79015;SDS011;72726;44.842;37.556;2024-01-11T04:18:52;33.28;;;13.90;;
79015;SDS011;72726;44.842;37.556;2024-01-11T04:19:53;37.38;;;14.50;;
79015;SDS011;72726;44.842;37.556;2024-01-11T04:20:55;34.17;;;13.95;;
79015;SDS011;72726;44.842;37.556;2024-01-11T04:21:56;33.28;;;14.02;;
79015;SDS011;72726;44.842;37.556;2024-01-11T04:22:57;33.90;;;14.68;;
79015;SDS011;72726;44.842;37.556;2024-01-11T04:24:04;36.58;;;14.32;;
79015;SDS011;72726;44.842;37.556;2024-01-11T04:25:08;32.80;;;13.55;;
79015;SDS011;72726;44.842;37.556;2024-01-11T04:26:10;35.60;;;13.90;;
79015;SDS011;72726;44.842;37.556;2024-01-11T04:27:11;31.52;;;13.80;;
79015;SDS011;72726;44.842;37.556;2024-01-11T04:28:13;34.22;;;13.80;;
79015;SDS011;72726;44.842;37.556;2024-01-11T04:29:14;34.15;;;13.55;;
79015;SDS011;72726;44.842;37.556;2024-01-11T04:30:15;34.58;;;13.60;;
79015;SDS011;72726;44.842;37.556;2024-01-11T04:31:17;33.10;;;13.40;;
79015;SDS011;72726;44.842;37.556;2024-01-11T04:32:18;33.42;;;14.43;;
79015;SDS011;72726;44.842;37.556;2024-01-11T04:33:20;30.95;;;12.95;;
79015;SDS011;72726;44.842;37.556;2024-01-11T04:34:21;31.17;;;13.00;;
79015;SDS011;72726;44.842;37.556;2024-01-11T04:35:22;29.55;;;12.18;;
79015;SDS011;72726;44.842;37.556;2024-01-11T04:36:24;30.45;;;13.32;;
79015;SDS011;72726;44.842;37.556;2024-01-11T04:37:25;29.33;;;12.90;;
79015;SDS011;72726;44.842;37.556;2024-01-11T04:38:27;28.15;;;12.63;;
79015;SDS011;72726;44.842;37.556;2024-01-11T04:39:28;29.02;;;11.75;;
79015;SDS011;72726;44.842;37.556;2024-01-11T04:40:29;29.02;;;12.98;;
79015;SDS011;72726;44.842;37.556;2024-01-11T04:41:31;32.15;;;12.85;;
79015;SDS011;72726;44.842;37.556;2024-01-11T04:42:35;27.55;;;12.52;;
79015;SDS011;72726;44.842;37.556;2024-01-11T04:43:39;27.60;;;11.10;;
79015;SDS011;72726;44.842;37.556;2024-01-11T04:44:41;26.42;;;11.90;;
79015;SDS011;72726;44.842;37.556;2024-01-11T04:45:47;30.75;;;12.23;;
79015;SDS011;72726;44.842;37.556;2024-01-11T04:46:54;27.60;;;12.30;;
79015;SDS011;72726;44.842;37.556;2024-01-11T04:47:55;28.88;;;12.02;;
79015;SDS011;72726;44.842;37.556;2024-01-11T04:48:57;25.83;;;11.45;;
79015;SDS011;72726;44.842;37.556;2024-01-11T04:49:58;26.17;;;11.48;;
79015;SDS011;72726;44.842;37.556;2024-01-11T04:50:59;28.15;;;12.77;;
79015;SDS011;72726;44.842;37.556;2024-01-11T04:52:01;24.17;;;12.02;;
79015;SDS011;72726;44.842;37.556;2024-01-11T04:53:02;28.73;;;12.35;;
79015;SDS011;72726;44.842;37.556;2024-01-11T04:54:04;26.50;;;11.93;;
79015;SDS011;72726;44.842;37.556;2024-01-11T04:55:05;28.17;;;11.80;;
79015;SDS011;72726;44.842;37.556;2024-01-11T04:56:08;30.42;;;12.20;;
79015;SDS011;72726;44.842;37.556;2024-01-11T04:57:10;25.02;;;11.80;;
79015;SDS011;72726;44.842;37.556;2024-01-11T04:58:11;24.30;;;11.27;;
79015;SDS011;72726;44.842;37.556;2024-01-11T04:59:12;26.60;;;11.73;;
79015;SDS011;72726;44.842;37.556;2024-01-11T05:00:14;25.73;;;11.70;;
79015;SDS011;72726;44.842;37.556;2024-01-11T05:01:16;28.10;;;12.63;;
79015;SDS011;72726;44.842;37.556;2024-01-11T05:02:21;23.50;;;11.05;;
79015;SDS011;72726;44.842;37.556;2024-01-11T05:03:22;22.75;;;10.75;;
79015;SDS011;72726;44.842;37.556;2024-01-11T05:04:24;23.60;;;11.18;;
79015;SDS011;72726;44.842;37.556;2024-01-11T05:05:25;26.63;;;12.32;;
79015;SDS011;72726;44.842;37.556;2024-01-11T05:06:26;25.13;;;12.30;;
79015;SDS011;72726;44.842;37.556;2024-01-11T05:07:28;23.90;;;11.27;;
79015;SDS011;72726;44.842;37.556;2024-01-11T05:08:29;23.70;;;11.77;;
79015;SDS011;72726;44.842;37.556;2024-01-11T05:09:30;24.98;;;12.02;;
79015;SDS011;72726;44.842;37.556;2024-01-11T05:10:32;24.98;;;10.45;;
79015;SDS011;72726;44.842;37.556;2024-01-11T05:11:33;24.08;;;11.05;;
79015;SDS011;72726;44.842;37.556;2024-01-11T05:12:34;21.98;;;10.82;;
79015;SDS011;72726;44.842;37.556;2024-01-11T05:13:37;22.17;;;9.75;;
79015;SDS011;72726;44.842;37.556;2024-01-11T05:14:38;19.25;;;9.13;;
79015;SDS011;72726;44.842;37.556;2024-01-11T05:15:40;23.90;;;10.18;;
79015;SDS011;72726;44.842;37.556;2024-01-11T05:16:41;20.15;;;9.13;;
79015;SDS011;72726;44.842;37.556;2024-01-11T05:17:43;20.00;;;8.80;;
79015;SDS011;72726;44.842;37.556;2024-01-11T05:18:44;19.25;;;8.75;;
79015;SDS011;72726;44.842;37.556;2024-01-11T05:19:45;20.13;;;9.43;;
79015;SDS011;72726;44.842;37.556;2024-01-11T05:20:47;20.83;;;9.18;;
79015;SDS011;72726;44.842;37.556;2024-01-11T05:21:48;18.95;;;8.00;;
79015;SDS011;72726;44.842;37.556;2024-01-11T05:22:49;19.85;;;8.45;;
79015;SDS011;72726;44.842;37.556;2024-01-11T05:23:51;17.80;;;8.68;;
79015;SDS011;72726;44.842;37.556;2024-01-11T05:24:53;20.42;;;8.55;;
79015;SDS011;72726;44.842;37.556;2024-01-11T05:25:54;17.58;;;8.65;;
79015;SDS011;72726;44.842;37.556;2024-01-11T05:26:55;19.33;;;8.85;;
79015;SDS011;72726;44.842;37.556;2024-01-11T05:27:57;20.00;;;8.63;;
79015;SDS011;72726;44.842;37.556;2024-01-11T05:28:58;18.08;;;8.10;;
79015;SDS011;72726;44.842;37.556;2024-01-11T05:30:00;17.63;;;9.15;;
79015;SDS011;72726;44.842;37.556;2024-01-11T05:31:01;20.27;;;9.25;;
79015;SDS011;72726;44.842;37.556;2024-01-11T05:32:02;19.38;;;8.50;;
79015;SDS011;72726;44.842;37.556;2024-01-11T05:33:04;20.67;;;8.30;;
79015;SDS011;72726;44.842;37.556;2024-01-11T05:34:05;18.65;;;9.07;;
79015;SDS011;72726;44.842;37.556;2024-01-11T05:35:06;18.48;;;8.55;;
79015;SDS011;72726;44.842;37.556;2024-01-11T05:36:07;19.67;;;9.23;;
79015;SDS011;72726;44.842;37.556;2024-01-11T05:37:09;20.92;;;9.00;;
79015;SDS011;72726;44.842;37.556;2024-01-11T05:38:10;18.33;;;8.40;;
79015;SDS011;72726;44.842;37.556;2024-01-11T05:39:11;17.60;;;8.32;;
79015;SDS011;72726;44.842;37.556;2024-01-11T05:40:12;17.70;;;8.70;;
79015;SDS011;72726;44.842;37.556;2024-01-11T05:41:14;17.67;;;8.13;;
79015;SDS011;72726;44.842;37.556;2024-01-11T05:42:15;17.40;;;8.60;;
79015;SDS011;72726;44.842;37.556;2024-01-11T05:43:16;16.63;;;7.38;;
79015;SDS011;72726;44.842;37.556;2024-01-11T05:44:17;17.75;;;8.13;;
79015;SDS011;72726;44.842;37.556;2024-01-11T05:45:18;15.25;;;7.07;;
79015;SDS011;72726;44.842;37.556;2024-01-11T05:46:20;15.95;;;7.57;;
79015;SDS011;72726;44.842;37.556;2024-01-11T05:47:21;16.27;;;7.72;;
79015;SDS011;72726;44.842;37.556;2024-01-11T05:48:22;14.88;;;6.95;;
79015;SDS011;72726;44.842;37.556;2024-01-11T05:49:23;17.70;;;6.78;;
79015;SDS011;72726;44.842;37.556;2024-01-11T05:50:24;14.25;;;6.43;;
79015;SDS011;72726;44.842;37.556;2024-01-11T05:51:25;16.70;;;7.28;;
79015;SDS011;72726;44.842;37.556;2024-01-11T05:52:27;19.08;;;8.75;;
79015;SDS011;72726;44.842;37.556;2024-01-11T05:53:28;22.65;;;10.07;;
79015;SDS011;72726;44.842;37.556;2024-01-11T05:54:29;26.10;;;12.00;;
79015;SDS011;72726;44.842;37.556;2024-01-11T05:55:36;28.58;;;13.23;;
79015;SDS011;72726;44.842;37.556;2024-01-11T05:56:38;28.10;;;12.48;;
79015;SDS011;72726;44.842;37.556;2024-01-11T05:57:39;27.75;;;12.07;;
79015;SDS011;72726;44.842;37.556;2024-01-11T05:58:40;26.13;;;12.45;;